sensor_id;sensor_type;location;lat;lon;timestamp;pressure;altitude;pressure_sealevel;temperature;humidity
11415;BME280;5763;42.714;23.244;2023-03-23T00:02:14;94536.16;;;8.88;76.63
11415;BME280;5763;42.714;23.244;2023-03-23T00:04:41;94547.81;;;8.89;76.70
11415;BME280;5763;42.714;23.244;2023-03-23T00:07:08;94535.66;;;8.81;76.99
11415;BME280;5763;42.714;23.244;2023-03-23T00:09:37;94537.50;;;8.71;77.25
11415;BME280;5763;42.714;23.244;2023-03-23T00:12:07;94525.97;;;8.67;77.86
11415;BME280;5763;42.714;23.244;2023-03-23T00:14:37;94531.19;;;8.74;77.13
11415;BME280;5763;42.714;23.244;2023-03-23T00:17:08;94535.75;;;8.77;77.62
11415;BME280;5763;42.714;23.244;2023-03-23T00:19:39;94530.81;;;8.85;77.13
11415;BME280;5763;42.714;23.244;2023-03-23T00:22:12;94541.50;;;8.92;77.06
11415;BME280;5763;42.714;23.244;2023-03-23T00:24:39;94523.16;;;8.92;76.92
11415;BME280;5763;42.714;23.244;2023-03-23T00:27:07;94530.47;;;8.95;76.75
11415;BME280;5763;42.714;23.244;2023-03-23T00:29:38;94541.38;;;8.95;75.92
11415;BME280;5763;42.714;23.244;2023-03-23T00:32:06;94541.38;;;8.95;76.07
11415;BME280;5763;42.714;23.244;2023-03-23T00:34:38;94525.25;;;8.88;76.00
11415;BME280;5763;42.714;23.244;2023-03-23T00:37:06;94544.00;;;8.86;76.13
11415;BME280;5763;42.714;23.244;2023-03-23T00:39:33;94540.41;;;8.89;76.33
11415;BME280;5763;42.714;23.244;2023-03-23T00:42:02;94527.59;;;8.65;76.29
11415;BME280;5763;42.714;23.244;2023-03-23T00:44:32;94551.56;;;8.82;76.91
11415;BME280;5763;42.714;23.244;2023-03-23T00:47:00;94555.56;;;8.90;76.65
11415;BME280;5763;42.714;23.244;2023-03-23T00:49:27;94541.84;;;8.81;76.97
11415;BME280;5763;42.714;23.244;2023-03-23T00:51:55;94544.41;;;8.76;77.11
11415;BME280;5763;42.714;23.244;2023-03-23T00:54:23;94544.13;;;8.83;76.97
11415;BME280;5763;42.714;23.244;2023-03-23T00:56:50;94549.47;;;8.86;76.97
11415;BME280;5763;42.714;23.244;2023-03-23T00:59:18;94559.94;;;8.88;76.63
11415;BME280;5763;42.714;23.244;2023-03-23T01:01:46;94557.22;;;8.88;76.82
11415;BME280;5763;42.714;23.244;2023-03-23T01:04:14;94550.00;;;8.94;76.45
11415;BME280;5763;42.714;23.244;2023-03-23T01:06:42;94552.19;;;8.86;76.84
11415;BME280;5763;42.714;23.244;2023-03-23T01:09:11;94562.44;;;8.95;76.56
11415;BME280;5763;42.714;23.244;2023-03-23T01:11:40;94557.88;;;8.92;76.34
11415;BME280;5763;42.714;23.244;2023-03-23T01:14:06;94561.47;;;8.89;76.18
11415;BME280;5763;42.714;23.244;2023-03-23T01:16:33;94563.31;;;8.92;76.27
11415;BME280;5763;42.714;23.244;2023-03-23T01:19:02;94566.50;;;8.90;75.99
11415;BME280;5763;42.714;23.244;2023-03-23T01:21:29;94552.44;;;8.79;76.10
11415;BME280;5763;42.714;23.244;2023-03-23T01:23:56;94556.13;;;8.85;76.92
11415;BME280;5763;42.714;23.244;2023-03-23T01:26:25;94551.94;;;8.72;78.32
11415;BME280;5763;42.714;23.244;2023-03-23T01:28:53;94534.16;;;8.55;79.70
11415;BME280;5763;42.714;23.244;2023-03-23T01:31:22;94562.16;;;8.80;79.69
11415;BME280;5763;42.714;23.244;2023-03-23T01:33:49;94547.19;;;8.85;79.31
11415;BME280;5763;42.714;23.244;2023-03-23T01:36:20;94553.41;;;8.85;79.26
11415;BME280;5763;42.714;23.244;2023-03-23T01:38:49;94548.31;;;8.75;79.48
11415;BME280;5763;42.714;23.244;2023-03-23T01:41:18;94549.16;;;8.84;79.71
11415;BME280;5763;42.714;23.244;2023-03-23T01:43:56;94550.94;;;8.78;79.90
11415;BME280;5763;42.714;23.244;2023-03-23T01:46:23;94551.91;;;8.84;78.78
11415;BME280;5763;42.714;23.244;2023-03-23T01:48:50;94549.06;;;8.75;78.43
11415;BME280;5763;42.714;23.244;2023-03-23T01:51:19;94538.72;;;8.70;78.67
11415;BME280;5763;42.714;23.244;2023-03-23T01:53:50;94541.44;;;8.70;77.70
11415;BME280;5763;42.714;23.244;2023-03-23T01:56:20;94532.88;;;8.59;77.74
11415;BME280;5763;42.714;23.244;2023-03-23T01:58:50;94534.16;;;8.55;77.45
11415;BME280;5763;42.714;23.244;2023-03-23T02:01:18;94532.13;;;8.46;78.38
11415;BME280;5763;42.714;23.244;2023-03-23T02:03:47;94539.03;;;8.38;79.64
11415;BME280;5763;42.714;23.244;2023-03-23T02:06:15;94541.38;;;8.49;79.22
11415;BME280;5763;42.714;23.244;2023-03-23T02:08:43;94540.22;;;8.37;79.54
11415;BME280;5763;42.714;23.244;2023-03-23T02:11:14;94531.84;;;8.32;79.72
11415;BME280;5763;42.714;23.244;2023-03-23T02:13:42;94534.56;;;8.32;79.54
11415;BME280;5763;42.714;23.244;2023-03-23T02:16:14;94534.66;;;8.16;79.66
11415;BME280;5763;42.714;23.244;2023-03-23T02:18:52;94546.66;;;8.31;79.63
11415;BME280;5763;42.714;23.244;2023-03-23T02:24:53;94540.84;;;8.41;80.03
11415;BME280;5763;42.714;23.244;2023-03-23T02:27:48;94548.81;;;8.48;80.46
11415;BME280;5763;42.714;23.244;2023-03-23T02:30:30;94533.22;;;8.49;80.02
11415;BME280;5763;42.714;23.244;2023-03-23T02:33:30;94537.47;;;8.50;80.13
11415;BME280;5763;42.714;23.244;2023-03-23T02:36:02;94528.84;;;8.51;80.03
11415;BME280;5763;42.714;23.244;2023-03-23T02:38:34;94532.47;;;8.48;79.86
11415;BME280;5763;42.714;23.244;2023-03-23T02:41:03;94542.22;;;8.71;78.00
11415;BME280;5763;42.714;23.244;2023-03-23T02:43:33;94533.19;;;8.61;77.61
11415;BME280;5763;42.714;23.244;2023-03-23T02:46:05;94539.28;;;8.65;77.56
11415;BME280;5763;42.714;23.244;2023-03-23T02:48:36;94557.41;;;8.59;78.16
11415;BME280;5763;42.714;23.244;2023-03-23T02:51:06;94542.69;;;8.57;77.76
11415;BME280;5763;42.714;23.244;2023-03-23T02:53:38;94552.69;;;8.60;77.34
11415;BME280;5763;42.714;23.244;2023-03-23T02:56:08;94540.66;;;8.48;77.52
11415;BME280;5763;42.714;23.244;2023-03-23T02:58:36;94560.94;;;8.47;77.34
11415;BME280;5763;42.714;23.244;2023-03-23T03:04:28;94554.41;;;8.32;77.91
11415;BME280;5763;42.714;23.244;2023-03-23T03:07:27;94562.13;;;8.34;77.96
11415;BME280;5763;42.714;23.244;2023-03-23T03:09:59;94542.06;;;8.15;78.48
11415;BME280;5763;42.714;23.244;2023-03-23T03:12:34;94568.38;;;8.22;78.29
11415;BME280;5763;42.714;23.244;2023-03-23T03:15:09;94570.66;;;8.23;78.22
11415;BME280;5763;42.714;23.244;2023-03-23T03:17:41;94571.31;;;8.27;77.66
11415;BME280;5763;42.714;23.244;2023-03-23T03:20:11;94566.31;;;8.26;77.51
11415;BME280;5763;42.714;23.244;2023-03-23T03:22:41;94572.41;;;8.30;77.58
11415;BME280;5763;42.714;23.244;2023-03-23T03:25:11;94572.50;;;8.26;78.23
11415;BME280;5763;42.714;23.244;2023-03-23T03:27:43;94575.34;;;8.23;78.38
11415;BME280;5763;42.714;23.244;2023-03-23T03:30:14;94584.59;;;8.25;78.32
11415;BME280;5763;42.714;23.244;2023-03-23T03:32:44;94580.25;;;8.28;77.87
11415;BME280;5763;42.714;23.244;2023-03-23T03:35:15;94579.91;;;8.13;78.91
11415;BME280;5763;42.714;23.244;2023-03-23T03:37:42;94585.56;;;8.19;79.01
11415;BME280;5763;42.714;23.244;2023-03-23T03:40:12;94581.41;;;8.14;78.53
11415;BME280;5763;42.714;23.244;2023-03-23T03:42:40;94590.94;;;8.22;78.02
11415;BME280;5763;42.714;23.244;2023-03-23T03:45:09;94585.81;;;8.24;77.12
11415;BME280;5763;42.714;23.244;2023-03-23T03:47:36;94583.16;;;8.08;77.54
11415;BME280;5763;42.714;23.244;2023-03-23T03:50:04;94577.28;;;7.97;77.88
11415;BME280;5763;42.714;23.244;2023-03-23T03:52:33;94589.94;;;7.91;77.75
11415;BME280;5763;42.714;23.244;2023-03-23T03:55:01;94594.81;;;7.84;76.88
11415;BME280;5763;42.714;23.244;2023-03-23T03:57:28;94591.31;;;7.83;76.53
11415;BME280;5763;42.714;23.244;2023-03-23T03:59:55;94582.38;;;7.83;76.29
11415;BME280;5763;42.714;23.244;2023-03-23T04:02:22;94592.63;;;7.79;76.41
11415;BME280;5763;42.714;23.244;2023-03-23T04:04:49;94578.34;;;7.75;76.19
11415;BME280;5763;42.714;23.244;2023-03-23T04:07:18;94573.56;;;7.66;77.27
11415;BME280;5763;42.714;23.244;2023-03-23T04:09:46;94579.63;;;7.70;78.33
11415;BME280;5763;42.714;23.244;2023-03-23T04:12:13;94585.84;;;7.71;79.23
11415;BME280;5763;42.714;23.244;2023-03-23T04:14:40;94563.75;;;7.69;78.67
11415;BME280;5763;42.714;23.244;2023-03-23T04:17:07;94582.38;;;7.83;78.05
11415;BME280;5763;42.714;23.244;2023-03-23T04:19:34;94583.38;;;7.76;77.12
11415;BME280;5763;42.714;23.244;2023-03-23T04:22:02;94595.97;;;7.70;76.93
11415;BME280;5763;42.714;23.244;2023-03-23T04:24:28;94590.22;;;7.68;76.94
11415;BME280;5763;42.714;23.244;2023-03-23T04:26:59;94583.78;;;7.62;77.56
11415;BME280;5763;42.714;23.244;2023-03-23T04:29:27;94596.75;;;7.71;76.97
11415;BME280;5763;42.714;23.244;2023-03-23T04:31:53;94587.50;;;7.68;77.62
11415;BME280;5763;42.714;23.244;2023-03-23T04:34:21;94584.75;;;7.68;77.84
11415;BME280;5763;42.714;23.244;2023-03-23T04:36:49;94592.41;;;7.73;78.29
11415;BME280;5763;42.714;23.244;2023-03-23T04:39:16;94590.09;;;7.72;79.57
11415;BME280;5763;42.714;23.244;2023-03-23T04:41:43;94590.53;;;7.70;79.79
11415;BME280;5763;42.714;23.244;2023-03-23T04:44:12;94529.19;;;7.41;79.72
11415;BME280;5763;42.714;23.244;2023-03-23T04:46:44;94596.53;;;7.78;80.60
11415;BME280;5763;42.714;23.244;2023-03-23T04:49:16;94590.22;;;7.81;80.17
11415;BME280;5763;42.714;23.244;2023-03-23T04:51:46;94593.19;;;7.86;79.85
11415;BME280;5763;42.714;23.244;2023-03-23T04:54:13;94591.22;;;7.87;78.93
11415;BME280;5763;42.714;23.244;2023-03-23T04:56:41;94602.78;;;7.91;78.55
11415;BME280;5763;42.714;23.244;2023-03-23T04:59:07;94601.03;;;7.97;77.61
11415;BME280;5763;42.714;23.244;2023-03-23T05:01:35;94599.63;;;7.92;77.39
11415;BME280;5763;42.714;23.244;2023-03-23T05:04:04;94600.91;;;7.88;77.80
11415;BME280;5763;42.714;23.244;2023-03-23T05:06:31;94623.16;;;7.86;78.51
11415;BME280;5763;42.714;23.244;2023-03-23T05:08:58;94625.78;;;7.90;78.87
11415;BME280;5763;42.714;23.244;2023-03-23T05:11:24;94618.88;;;7.85;78.66
11415;BME280;5763;42.714;23.244;2023-03-23T05:13:52;94625.66;;;7.93;78.53
11415;BME280;5763;42.714;23.244;2023-03-23T05:16:18;94621.72;;;7.94;78.41
11415;BME280;5763;42.714;23.244;2023-03-23T05:18:46;94598.41;;;7.81;78.41
11415;BME280;5763;42.714;23.244;2023-03-23T05:21:13;94620.09;;;7.97;78.19
11415;BME280;5763;42.714;23.244;2023-03-23T05:23:41;94623.03;;;7.90;77.79
11415;BME280;5763;42.714;23.244;2023-03-23T05:26:07;94621.06;;;7.90;77.59
11415;BME280;5763;42.714;23.244;2023-03-23T05:28:34;94616.19;;;7.98;77.45
11415;BME280;5763;42.714;23.244;2023-03-23T05:31:02;94610.19;;;7.90;77.65
11415;BME280;5763;42.714;23.244;2023-03-23T05:33:28;94630.69;;;8.07;77.46
11415;BME280;5763;42.714;23.244;2023-03-23T05:35:56;94627.63;;;8.05;77.66
11415;BME280;5763;42.714;23.244;2023-03-23T05:38:23;94629.19;;;8.06;77.71
11415;BME280;5763;42.714;23.244;2023-03-23T05:40:50;94642.56;;;8.01;78.22
11415;BME280;5763;42.714;23.244;2023-03-23T05:43:18;94639.63;;;8.08;78.21
11415;BME280;5763;42.714;23.244;2023-03-23T05:45:46;94641.50;;;8.11;78.24
11415;BME280;5763;42.714;23.244;2023-03-23T05:48:13;94650.56;;;8.20;78.22
11415;BME280;5763;42.714;23.244;2023-03-23T05:50:40;94656.03;;;8.33;77.98
11415;BME280;5763;42.714;23.244;2023-03-23T05:53:08;94645.91;;;8.33;77.52
11415;BME280;5763;42.714;23.244;2023-03-23T05:55:35;94652.00;;;8.37;77.57
11415;BME280;5763;42.714;23.244;2023-03-23T05:58:02;94648.50;;;8.37;77.74
11415;BME280;5763;42.714;23.244;2023-03-23T06:00:29;94658.97;;;8.63;77.35
11415;BME280;5763;42.714;23.244;2023-03-23T06:02:56;94652.31;;;8.64;77.09
11415;BME280;5763;42.714;23.244;2023-03-23T06:05:23;94640.31;;;8.74;76.67
11415;BME280;5763;42.714;23.244;2023-03-23T06:07:51;94649.69;;;8.86;76.76
11415;BME280;5763;42.714;23.244;2023-03-23T06:10:20;94655.44;;;8.88;77.18
11415;BME280;5763;42.714;23.244;2023-03-23T06:12:49;94649.00;;;8.94;77.48
11415;BME280;5763;42.714;23.244;2023-03-23T06:15:16;94657.06;;;8.98;77.65
11415;BME280;5763;42.714;23.244;2023-03-23T06:17:43;94661.06;;;9.06;77.41
11415;BME280;5763;42.714;23.244;2023-03-23T06:20:11;94654.84;;;9.18;76.97
11415;BME280;5763;42.714;23.244;2023-03-23T06:22:39;94634.09;;;9.20;76.70
11415;BME280;5763;42.714;23.244;2023-03-23T06:25:07;94648.91;;;9.32;76.49
11415;BME280;5763;42.714;23.244;2023-03-23T06:27:36;94640.31;;;9.42;76.41
11415;BME280;5763;42.714;23.244;2023-03-23T06:30:04;94651.63;;;9.53;76.64
11415;BME280;5763;42.714;23.244;2023-03-23T06:32:32;94655.22;;;9.63;76.62
11415;BME280;5763;42.714;23.244;2023-03-23T06:34:59;94654.44;;;9.62;77.06
11415;BME280;5763;42.714;23.244;2023-03-23T06:37:26;94654.97;;;9.70;77.72
11415;BME280;5763;42.714;23.244;2023-03-23T06:39:53;94645.41;;;9.74;77.74
11415;BME280;5763;42.714;23.244;2023-03-23T06:42:21;94654.59;;;9.80;77.48
11415;BME280;5763;42.714;23.244;2023-03-23T06:44:50;94645.91;;;9.82;77.37
11415;BME280;5763;42.714;23.244;2023-03-23T06:47:17;94661.69;;;9.99;77.51
11415;BME280;5763;42.714;23.244;2023-03-23T06:49:44;94656.22;;;9.99;77.46
11415;BME280;5763;42.714;23.244;2023-03-23T06:52:11;94652.25;;;10.00;78.00
11415;BME280;5763;42.714;23.244;2023-03-23T06:54:38;94666.03;;;10.09;77.94
11415;BME280;5763;42.714;23.244;2023-03-23T06:57:05;94661.38;;;10.19;78.23
11415;BME280;5763;42.714;23.244;2023-03-23T06:59:32;94667.75;;;10.16;78.18
11415;BME280;5763;42.714;23.244;2023-03-23T07:02:00;94667.13;;;10.42;77.57
11415;BME280;5763;42.714;23.244;2023-03-23T07:04:27;94668.84;;;10.58;76.70
11415;BME280;5763;42.714;23.244;2023-03-23T07:06:53;94670.25;;;10.62;77.08
11415;BME280;5763;42.714;23.244;2023-03-23T07:09:22;94660.97;;;10.60;76.66
11415;BME280;5763;42.714;23.244;2023-03-23T07:11:49;94676.41;;;10.45;76.96
11415;BME280;5763;42.714;23.244;2023-03-23T07:14:17;94663.13;;;10.34;77.79
11415;BME280;5763;42.714;23.244;2023-03-23T07:16:43;94677.34;;;10.51;77.78
11415;BME280;5763;42.714;23.244;2023-03-23T07:19:11;94664.16;;;10.58;77.80
11415;BME280;5763;42.714;23.244;2023-03-23T07:21:38;94664.41;;;10.51;77.69
11415;BME280;5763;42.714;23.244;2023-03-23T07:24:06;94672.75;;;10.78;76.65
11415;BME280;5763;42.714;23.244;2023-03-23T07:26:33;94664.97;;;10.77;77.26
11415;BME280;5763;42.714;23.244;2023-03-23T07:29:01;94679.56;;;10.74;76.84
11415;BME280;5763;42.714;23.244;2023-03-23T07:31:28;94674.25;;;10.79;76.78
11415;BME280;5763;42.714;23.244;2023-03-23T07:33:54;94671.28;;;10.95;75.24
11415;BME280;5763;42.714;23.244;2023-03-23T07:36:23;94678.88;;;11.00;75.33
11415;BME280;5763;42.714;23.244;2023-03-23T07:38:50;94678.75;;;11.04;74.43
11415;BME280;5763;42.714;23.244;2023-03-23T07:41:16;94683.81;;;11.14;74.41
11415;BME280;5763;42.714;23.244;2023-03-23T07:43:43;94668.84;;;11.06;75.38
11415;BME280;5763;42.714;23.244;2023-03-23T07:46:11;94680.91;;;11.18;75.19
11415;BME280;5763;42.714;23.244;2023-03-23T07:48:38;94673.91;;;11.26;75.10
11415;BME280;5763;42.714;23.244;2023-03-23T07:51:06;94664.66;;;11.32;74.37
11415;BME280;5763;42.714;23.244;2023-03-23T07:53:35;94690.09;;;11.42;73.23
11415;BME280;5763;42.714;23.244;2023-03-23T07:56:03;94682.06;;;11.65;73.89
11415;BME280;5763;42.714;23.244;2023-03-23T07:58:29;94682.06;;;11.83;72.55
11415;BME280;5763;42.714;23.244;2023-03-23T08:00:56;94677.78;;;11.82;72.05
11415;BME280;5763;42.714;23.244;2023-03-23T08:03:24;94687.84;;;12.03;71.52
11415;BME280;5763;42.714;23.244;2023-03-23T08:05:51;94696.19;;;12.18;70.22
11415;BME280;5763;42.714;23.244;2023-03-23T08:08:18;94695.13;;;12.24;69.79
11415;BME280;5763;42.714;23.244;2023-03-23T08:10:46;94690.84;;;12.32;69.88
11415;BME280;5763;42.714;23.244;2023-03-23T08:13:13;94692.63;;;12.44;69.88
11415;BME280;5763;42.714;23.244;2023-03-23T08:15:40;94702.63;;;12.74;69.44
11415;BME280;5763;42.714;23.244;2023-03-23T08:18:07;94696.13;;;12.95;68.79
11415;BME280;5763;42.714;23.244;2023-03-23T08:20:34;94694.84;;;13.14;66.84
11415;BME280;5763;42.714;23.244;2023-03-23T08:23:01;94695.38;;;13.51;65.79
11415;BME280;5763;42.714;23.244;2023-03-23T08:25:29;94680.09;;;13.73;65.50
11415;BME280;5763;42.714;23.244;2023-03-23T08:27:59;94692.44;;;14.16;63.52
11415;BME280;5763;42.714;23.244;2023-03-23T08:30:27;94689.81;;;14.36;64.18
11415;BME280;5763;42.714;23.244;2023-03-23T08:32:56;94695.88;;;14.69;62.41
11415;BME280;5763;42.714;23.244;2023-03-23T08:35:23;94703.28;;;14.92;61.68
11415;BME280;5763;42.714;23.244;2023-03-23T08:37:50;94691.56;;;15.11;60.03
11415;BME280;5763;42.714;23.244;2023-03-23T08:40:20;94684.50;;;15.25;59.76
11415;BME280;5763;42.714;23.244;2023-03-23T08:42:48;94695.22;;;15.37;58.48
11415;BME280;5763;42.714;23.244;2023-03-23T08:45:19;94692.34;;;15.46;58.44
11415;BME280;5763;42.714;23.244;2023-03-23T08:47:46;94693.75;;;15.76;57.26
11415;BME280;5763;42.714;23.244;2023-03-23T08:50:20;94699.25;;;16.16;54.73
11415;BME280;5763;42.714;23.244;2023-03-23T08:52:48;94689.94;;;16.14;54.62
11415;BME280;5763;42.714;23.244;2023-03-23T08:55:16;94690.78;;;16.25;49.89
11415;BME280;5763;42.714;23.244;2023-03-23T08:57:43;94676.09;;;16.34;48.20
11415;BME280;5763;42.714;23.244;2023-03-23T09:00:13;94685.59;;;16.53;47.89
11415;BME280;5763;42.714;23.244;2023-03-23T09:02:44;94673.97;;;16.74;49.42
11415;BME280;5763;42.714;23.244;2023-03-23T09:05:13;94674.38;;;16.93;46.74
11415;BME280;5763;42.714;23.244;2023-03-23T09:07:42;94677.31;;;17.15;46.59
11415;BME280;5763;42.714;23.244;2023-03-23T09:10:09;94677.84;;;17.19;47.82
11415;BME280;5763;42.714;23.244;2023-03-23T09:12:36;94687.28;;;17.38;45.16
11415;BME280;5763;42.714;23.244;2023-03-23T09:15:04;94677.59;;;17.22;44.20
11415;BME280;5763;42.714;23.244;2023-03-23T09:17:34;94666.44;;;17.42;44.73
11415;BME280;5763;42.714;23.244;2023-03-23T09:20:04;94677.66;;;17.65;44.30
11415;BME280;5763;42.714;23.244;2023-03-23T09:22:36;94679.47;;;17.78;43.47
11415;BME280;5763;42.714;23.244;2023-03-23T09:25:04;94677.59;;;18.07;42.60
11415;BME280;5763;42.714;23.244;2023-03-23T09:27:31;94665.63;;;18.43;41.38
11415;BME280;5763;42.714;23.244;2023-03-23T09:29:58;94666.63;;;18.51;42.49
11415;BME280;5763;42.714;23.244;2023-03-23T09:32:26;94664.66;;;18.57;42.08
11415;BME280;5763;42.714;23.244;2023-03-23T09:34:53;94661.34;;;18.53;41.41
11415;BME280;5763;42.714;23.244;2023-03-23T09:37:22;94656.56;;;18.48;40.97
11415;BME280;5763;42.714;23.244;2023-03-23T09:39:49;94653.06;;;18.64;41.07
11415;BME280;5763;42.714;23.244;2023-03-23T09:42:45;94658.59;;;18.97;40.82
11415;BME280;5763;42.714;23.244;2023-03-23T09:45:20;94642.22;;;19.10;38.73
11415;BME280;5763;42.714;23.244;2023-03-23T09:48:18;94658.09;;;19.37;38.91
11415;BME280;5763;42.714;23.244;2023-03-23T09:50:48;94649.25;;;19.38;38.91
11415;BME280;5763;42.714;23.244;2023-03-23T09:53:22;94643.22;;;19.18;39.12
11415;BME280;5763;42.714;23.244;2023-03-23T09:55:51;94649.19;;;19.60;37.31
11415;BME280;5763;42.714;23.244;2023-03-23T09:58:21;94659.09;;;19.45;39.67
11415;BME280;5763;42.714;23.244;2023-03-23T10:00:56;94645.66;;;19.65;40.46
11415;BME280;5763;42.714;23.244;2023-03-23T10:03:26;94645.38;;;19.80;38.19
11415;BME280;5763;42.714;23.244;2023-03-23T10:05:54;94642.50;;;19.96;37.89
11415;BME280;5763;42.714;23.244;2023-03-23T10:08:24;94639.34;;;19.65;37.22
11415;BME280;5763;42.714;23.244;2023-03-23T10:10:58;94645.88;;;19.73;38.52
11415;BME280;5763;42.714;23.244;2023-03-23T10:13:45;94634.66;;;20.00;39.01
11415;BME280;5763;42.714;23.244;2023-03-23T10:16:19;94632.31;;;19.53;37.40
11415;BME280;5763;42.714;23.244;2023-03-23T10:18:52;94641.19;;;19.35;37.89
11415;BME280;5763;42.714;23.244;2023-03-23T10:21:23;94639.31;;;19.70;38.11
11415;BME280;5763;42.714;23.244;2023-03-23T10:23:55;94641.91;;;20.20;37.89
11415;BME280;5763;42.714;23.244;2023-03-23T10:26:33;94636.00;;;20.40;36.32
11415;BME280;5763;42.714;23.244;2023-03-23T10:29:11;94634.50;;;20.74;34.29
11415;BME280;5763;42.714;23.244;2023-03-23T10:31:40;94633.06;;;20.97;34.05
11415;BME280;5763;42.714;23.244;2023-03-23T10:34:12;94635.97;;;21.39;35.05
11415;BME280;5763;42.714;23.244;2023-03-23T10:36:49;94641.09;;;21.59;34.63
11415;BME280;5763;42.714;23.244;2023-03-23T10:39:20;94645.63;;;21.62;34.12
11415;BME280;5763;42.714;23.244;2023-03-23T10:41:47;94636.59;;;21.99;34.06
11415;BME280;5763;42.714;23.244;2023-03-23T10:44:16;94641.75;;;21.95;32.73
11415;BME280;5763;42.714;23.244;2023-03-23T10:46:46;94636.34;;;22.21;33.32
11415;BME280;5763;42.714;23.244;2023-03-23T10:49:22;94639.88;;;22.40;31.49
11415;BME280;5763;42.714;23.244;2023-03-23T10:51:56;94625.34;;;22.65;32.40
11415;BME280;5763;42.714;23.244;2023-03-23T10:54:32;94634.94;;;22.51;32.19
11415;BME280;5763;42.714;23.244;2023-03-23T10:57:12;94626.91;;;22.42;32.28
11415;BME280;5763;42.714;23.244;2023-03-23T10:59:40;94638.50;;;22.52;31.63
11415;BME280;5763;42.714;23.244;2023-03-23T11:02:15;94622.25;;;22.32;30.64
11415;BME280;5763;42.714;23.244;2023-03-23T11:04:46;94625.19;;;22.39;31.77
11415;BME280;5763;42.714;23.244;2023-03-23T11:07:20;94625.25;;;22.34;32.45
11415;BME280;5763;42.714;23.244;2023-03-23T11:09:54;94610.81;;;22.54;30.80
11415;BME280;5763;42.714;23.244;2023-03-23T11:12:23;94600.72;;;22.82;31.97
11415;BME280;5763;42.714;23.244;2023-03-23T11:14:50;94608.25;;;22.87;32.17
11415;BME280;5763;42.714;23.244;2023-03-23T11:17:24;94601.53;;;22.96;31.63
11415;BME280;5763;42.714;23.244;2023-03-23T11:19:52;94601.13;;;23.05;31.14
11415;BME280;5763;42.714;23.244;2023-03-23T11:22:25;94597.22;;;22.95;31.52
11415;BME280;5763;42.714;23.244;2023-03-23T11:24:55;94611.56;;;23.17;31.13
11415;BME280;5763;42.714;23.244;2023-03-23T11:27:23;94600.72;;;23.14;30.04
11415;BME280;5763;42.714;23.244;2023-03-23T11:29:53;94590.91;;;23.65;29.71
11415;BME280;5763;42.714;23.244;2023-03-23T11:32:24;94594.47;;;24.04;29.37
11415;BME280;5763;42.714;23.244;2023-03-23T11:34:55;94584.06;;;24.38;29.11
11415;BME280;5763;42.714;23.244;2023-03-23T11:37:28;94592.19;;;24.16;28.29
11415;BME280;5763;42.714;23.244;2023-03-23T11:39:59;94582.72;;;24.19;28.52
11415;BME280;5763;42.714;23.244;2023-03-23T11:42:36;94582.41;;;24.09;28.21
11415;BME280;5763;42.714;23.244;2023-03-23T11:45:15;94579.09;;;23.98;28.92
11415;BME280;5763;42.714;23.244;2023-03-23T11:47:49;94577.63;;;24.30;29.07
11415;BME280;5763;42.714;23.244;2023-03-23T11:50:18;94561.44;;;24.49;28.65
11415;BME280;5763;42.714;23.244;2023-03-23T11:52:51;94582.84;;;24.60;28.73
11415;BME280;5763;42.714;23.244;2023-03-23T11:55:23;94570.97;;;24.67;28.49
11415;BME280;5763;42.714;23.244;2023-03-23T11:57:52;94562.09;;;24.76;28.09
11415;BME280;5763;42.714;23.244;2023-03-23T12:00:21;94561.56;;;24.98;28.80
11415;BME280;5763;42.714;23.244;2023-03-23T12:03:26;94576.50;;;25.21;27.78
11415;BME280;5763;42.714;23.244;2023-03-23T12:06:02;94564.91;;;25.17;26.76
11415;BME280;5763;42.714;23.244;2023-03-23T12:08:47;94569.81;;;25.24;27.14
11415;BME280;5763;42.714;23.244;2023-03-23T12:11:22;94568.25;;;25.36;27.48
11415;BME280;5763;42.714;23.244;2023-03-23T12:14:00;94569.13;;;25.31;27.63
11415;BME280;5763;42.714;23.244;2023-03-23T12:16:37;94553.22;;;25.26;26.77
11415;BME280;5763;42.714;23.244;2023-03-23T12:19:12;94561.34;;;24.75;27.40
11415;BME280;5763;42.714;23.244;2023-03-23T12:21:49;94550.34;;;24.23;28.25
11415;BME280;5763;42.714;23.244;2023-03-23T12:24:30;94541.88;;;24.36;27.01
11415;BME280;5763;42.714;23.244;2023-03-23T12:27:07;94560.03;;;24.56;27.23
11415;BME280;5763;42.714;23.244;2023-03-23T12:29:48;94552.63;;;24.99;27.23
11415;BME280;5763;42.714;23.244;2023-03-23T12:32:47;94547.50;;;24.90;26.91
11415;BME280;5763;42.714;23.244;2023-03-23T12:35:27;94533.63;;;25.05;25.33
11415;BME280;5763;42.714;23.244;2023-03-23T12:38:08;94540.09;;;25.21;26.64
11415;BME280;5763;42.714;23.244;2023-03-23T12:40:48;94538.41;;;24.77;26.50
11415;BME280;5763;42.714;23.244;2023-03-23T12:43:26;94535.56;;;24.56;27.29
11415;BME280;5763;42.714;23.244;2023-03-23T12:46:02;94535.31;;;24.67;27.13
11415;BME280;5763;42.714;23.244;2023-03-23T12:48:34;94529.56;;;24.19;26.70
11415;BME280;5763;42.714;23.244;2023-03-23T12:51:20;94548.66;;;24.07;29.11
11415;BME280;5763;42.714;23.244;2023-03-23T12:53:57;94535.31;;;24.00;28.17
11415;BME280;5763;42.714;23.244;2023-03-23T12:56:30;94532.44;;;23.93;27.32
11415;BME280;5763;42.714;23.244;2023-03-23T12:59:09;94521.50;;;24.15;27.34
11415;BME280;5763;42.714;23.244;2023-03-23T13:01:40;94521.00;;;24.04;28.17
11415;BME280;5763;42.714;23.244;2023-03-23T13:04:11;94524.84;;;24.14;28.12
11415;BME280;5763;42.714;23.244;2023-03-23T13:06:40;94522.63;;;24.12;27.16
11415;BME280;5763;42.714;23.244;2023-03-23T13:09:12;94496.84;;;23.80;28.17
11415;BME280;5763;42.714;23.244;2023-03-23T13:11:41;94515.63;;;24.06;26.61
11415;BME280;5763;42.714;23.244;2023-03-23T13:14:28;94512.34;;;24.28;27.48
11415;BME280;5763;42.714;23.244;2023-03-23T13:17:05;94507.09;;;24.11;27.39
11415;BME280;5763;42.714;23.244;2023-03-23T13:19:54;94516.44;;;24.47;27.09
11415;BME280;5763;42.714;23.244;2023-03-23T13:22:27;94514.34;;;24.40;27.41
11415;BME280;5763;42.714;23.244;2023-03-23T13:24:58;94519.16;;;24.40;27.71
11415;BME280;5763;42.714;23.244;2023-03-23T13:27:28;94511.28;;;24.18;27.13
11415;BME280;5763;42.714;23.244;2023-03-23T13:29:56;94508.28;;;24.16;27.85